sensor_id;sensor_type;location;lat;lon;timestamp;temperature;humidity
42907;DHT22;28552;51.146;6.576;2024-02-16T00:00:59;11.30;99.90
42907;DHT22;28552;51.146;6.576;2024-02-16T00:04:00;11.30;99.90
42907;DHT22;28552;51.146;6.576;2024-02-16T00:07:00;11.40;99.90
42907;DHT22;28552;51.146;6.576;2024-02-16T00:10:01;11.40;99.90
42907;DHT22;28552;51.146;6.576;2024-02-16T00:13:02;11.40;99.90
42907;DHT22;28552;51.146;6.576;2024-02-16T00:16:02;11.50;99.90
42907;DHT22;28552;51.146;6.576;2024-02-16T00:19:03;11.40;99.90
42907;DHT22;28552;51.146;6.576;2024-02-16T00:22:04;11.50;99.90
42907;DHT22;28552;51.146;6.576;2024-02-16T00:25:07;11.50;99.90
42907;DHT22;28552;51.146;6.576;2024-02-16T00:28:08;11.50;99.90
42907;DHT22;28552;51.146;6.576;2024-02-16T00:31:09;11.50;99.90
42907;DHT22;28552;51.146;6.576;2024-02-16T00:34:10;11.50;99.90
42907;DHT22;28552;51.146;6.576;2024-02-16T00:37:11;11.60;99.90
42907;DHT22;28552;51.146;6.576;2024-02-16T00:40:12;11.60;99.90
42907;DHT22;28552;51.146;6.576;2024-02-16T00:43:13;11.60;99.90
42907;DHT22;28552;51.146;6.576;2024-02-16T00:46:14;11.60;99.90
42907;DHT22;28552;51.146;6.576;2024-02-16T00:49:15;11.60;99.90
42907;DHT22;28552;51.146;6.576;2024-02-16T00:52:15;11.60;99.90
42907;DHT22;28552;51.146;6.576;2024-02-16T00:55:16;11.60;99.90
42907;DHT22;28552;51.146;6.576;2024-02-16T00:58:16;11.60;99.90
42907;DHT22;28552;51.146;6.576;2024-02-16T01:01:17;11.60;99.90
42907;DHT22;28552;51.146;6.576;2024-02-16T01:04:18;11.60;99.90
42907;DHT22;28552;51.146;6.576;2024-02-16T01:07:18;11.60;99.90
42907;DHT22;28552;51.146;6.576;2024-02-16T01:10:19;11.60;99.90
42907;DHT22;28552;51.146;6.576;2024-02-16T01:13:20;11.70;99.90
42907;DHT22;28552;51.146;6.576;2024-02-16T01:16:20;11.70;99.90
42907;DHT22;28552;51.146;6.576;2024-02-16T01:19:21;11.70;99.90
42907;DHT22;28552;51.146;6.576;2024-02-16T01:22:21;11.70;99.90
42907;DHT22;28552;51.146;6.576;2024-02-16T01:25:22;11.70;99.90
42907;DHT22;28552;51.146;6.576;2024-02-16T01:28:23;11.70;99.90
42907;DHT22;28552;51.146;6.576;2024-02-16T01:31:23;11.70;99.90
42907;DHT22;28552;51.146;6.576;2024-02-16T01:34:24;11.70;99.90
42907;DHT22;28552;51.146;6.576;2024-02-16T01:37:24;11.70;99.90
42907;DHT22;28552;51.146;6.576;2024-02-16T01:40:25;11.60;99.90
42907;DHT22;28552;51.146;6.576;2024-02-16T01:43:26;11.70;99.90
42907;DHT22;28552;51.146;6.576;2024-02-16T01:46:27;11.60;99.90
42907;DHT22;28552;51.146;6.576;2024-02-16T01:49:28;11.60;99.90
42907;DHT22;28552;51.146;6.576;2024-02-16T01:52:30;11.60;99.90
42907;DHT22;28552;51.146;6.576;2024-02-16T01:55:31;11.60;99.90
42907;DHT22;28552;51.146;6.576;2024-02-16T01:58:31;11.60;99.90
42907;DHT22;28552;51.146;6.576;2024-02-16T02:01:32;11.70;99.90
42907;DHT22;28552;51.146;6.576;2024-02-16T02:04:33;11.60;99.90
42907;DHT22;28552;51.146;6.576;2024-02-16T02:07:34;11.40;99.90
42907;DHT22;28552;51.146;6.576;2024-02-16T02:10:35;11.20;99.90
42907;DHT22;28552;51.146;6.576;2024-02-16T02:13:35;11.00;99.90
42907;DHT22;28552;51.146;6.576;2024-02-16T02:16:37;10.80;99.90
42907;DHT22;28552;51.146;6.576;2024-02-16T02:19:37;10.70;99.90
42907;DHT22;28552;51.146;6.576;2024-02-16T02:22:38;10.50;99.90
42907;DHT22;28552;51.146;6.576;2024-02-16T02:25:39;10.50;99.90
42907;DHT22;28552;51.146;6.576;2024-02-16T02:28:40;10.50;99.90
42907;DHT22;28552;51.146;6.576;2024-02-16T02:31:41;10.50;99.90
42907;DHT22;28552;51.146;6.576;2024-02-16T02:34:41;10.50;99.90
42907;DHT22;28552;51.146;6.576;2024-02-16T02:37:42;10.60;99.90
42907;DHT22;28552;51.146;6.576;2024-02-16T02:40:43;10.60;99.90
42907;DHT22;28552;51.146;6.576;2024-02-16T02:43:43;10.70;99.90
42907;DHT22;28552;51.146;6.576;2024-02-16T02:46:44;10.70;99.90
42907;DHT22;28552;51.146;6.576;2024-02-16T02:49:44;10.70;99.90
42907;DHT22;28552;51.146;6.576;2024-02-16T02:52:45;10.70;99.90
42907;DHT22;28552;51.146;6.576;2024-02-16T02:55:46;10.70;99.90
42907;DHT22;28552;51.146;6.576;2024-02-16T02:58:46;10.80;99.90
42907;DHT22;28552;51.146;6.576;2024-02-16T03:01:47;10.80;99.90
42907;DHT22;28552;51.146;6.576;2024-02-16T03:04:48;10.80;99.90
42907;DHT22;28552;51.146;6.576;2024-02-16T03:07:49;10.70;99.90
42907;DHT22;28552;51.146;6.576;2024-02-16T03:10:49;10.80;99.90
42907;DHT22;28552;51.146;6.576;2024-02-16T03:13:50;10.80;99.90
42907;DHT22;28552;51.146;6.576;2024-02-16T03:16:50;10.80;99.90
42907;DHT22;28552;51.146;6.576;2024-02-16T03:19:51;10.80;99.90
42907;DHT22;28552;51.146;6.576;2024-02-16T03:22:52;10.80;99.90
42907;DHT22;28552;51.146;6.576;2024-02-16T03:25:53;10.80;99.90
42907;DHT22;28552;51.146;6.576;2024-02-16T03:28:53;10.80;99.90
42907;DHT22;28552;51.146;6.576;2024-02-16T03:31:54;10.80;99.90
42907;DHT22;28552;51.146;6.576;2024-02-16T03:34:57;10.80;99.90
42907;DHT22;28552;51.146;6.576;2024-02-16T03:37:57;10.90;99.90
42907;DHT22;28552;51.146;6.576;2024-02-16T03:40:58;10.90;99.90
42907;DHT22;28552;51.146;6.576;2024-02-16T03:43:59;11.00;99.90
42907;DHT22;28552;51.146;6.576;2024-02-16T03:47:01;10.90;99.90
42907;DHT22;28552;51.146;6.576;2024-02-16T03:50:02;11.00;99.90
42907;DHT22;28552;51.146;6.576;2024-02-16T03:53:03;11.00;99.90
42907;DHT22;28552;51.146;6.576;2024-02-16T03:56:04;11.00;99.90
42907;DHT22;28552;51.146;6.576;2024-02-16T03:59:06;10.90;99.90
42907;DHT22;28552;51.146;6.576;2024-02-16T04:02:07;11.00;99.90
42907;DHT22;28552;51.146;6.576;2024-02-16T04:05:07;11.00;99.90
42907;DHT22;28552;51.146;6.576;2024-02-16T04:08:08;10.90;99.90
42907;DHT22;28552;51.146;6.576;2024-02-16T04:11:11;10.90;99.90
42907;DHT22;28552;51.146;6.576;2024-02-16T04:14:13;10.90;99.90
42907;DHT22;28552;51.146;6.576;2024-02-16T04:17:14;10.90;99.90
42907;DHT22;28552;51.146;6.576;2024-02-16T04:20:15;10.90;99.90
42907;DHT22;28552;51.146;6.576;2024-02-16T04:23:16;10.90;99.90
42907;DHT22;28552;51.146;6.576;2024-02-16T04:26:16;10.90;99.90
42907;DHT22;28552;51.146;6.576;2024-02-16T04:29:17;10.90;99.90
42907;DHT22;28552;51.146;6.576;2024-02-16T04:32:18;10.80;99.90
42907;DHT22;28552;51.146;6.576;2024-02-16T04:35:18;10.80;99.90
42907;DHT22;28552;51.146;6.576;2024-02-16T04:38:19;10.70;99.90
42907;DHT22;28552;51.146;6.576;2024-02-16T04:41:20;10.70;99.90
42907;DHT22;28552;51.146;6.576;2024-02-16T04:44:21;10.70;99.90
42907;DHT22;28552;51.146;6.576;2024-02-16T04:47:21;10.60;99.90
42907;DHT22;28552;51.146;6.576;2024-02-16T04:50:23;10.60;99.90
42907;DHT22;28552;51.146;6.576;2024-02-16T04:53:24;10.60;99.90
42907;DHT22;28552;51.146;6.576;2024-02-16T04:56:24;10.60;99.90
42907;DHT22;28552;51.146;6.576;2024-02-16T04:59:25;10.60;99.90
42907;DHT22;28552;51.146;6.576;2024-02-16T05:02:25;10.60;99.90
42907;DHT22;28552;51.146;6.576;2024-02-16T05:05:26;10.60;99.90
42907;DHT22;28552;51.146;6.576;2024-02-16T05:08:26;10.50;99.90
42907;DHT22;28552;51.146;6.576;2024-02-16T05:11:27;10.50;99.90
42907;DHT22;28552;51.146;6.576;2024-02-16T05:14:30;10.50;99.90
42907;DHT22;28552;51.146;6.576;2024-02-16T05:17:30;10.40;99.90
42907;DHT22;28552;51.146;6.576;2024-02-16T05:20:31;10.40;99.90
42907;DHT22;28552;51.146;6.576;2024-02-16T05:23:31;10.40;99.90
42907;DHT22;28552;51.146;6.576;2024-02-16T05:26:32;10.40;99.90
42907;DHT22;28552;51.146;6.576;2024-02-16T05:29:33;10.40;99.90
42907;DHT22;28552;51.146;6.576;2024-02-16T05:32:35;10.40;99.90
42907;DHT22;28552;51.146;6.576;2024-02-16T05:35:36;10.40;99.90
42907;DHT22;28552;51.146;6.576;2024-02-16T05:38:40;10.40;99.90
42907;DHT22;28552;51.146;6.576;2024-02-16T05:41:41;10.40;99.90
42907;DHT22;28552;51.146;6.576;2024-02-16T05:44:42;10.30;99.90
42907;DHT22;28552;51.146;6.576;2024-02-16T05:47:44;10.40;99.90
42907;DHT22;28552;51.146;6.576;2024-02-16T05:50:46;10.50;99.90
42907;DHT22;28552;51.146;6.576;2024-02-16T05:53:46;10.60;99.90
42907;DHT22;28552;51.146;6.576;2024-02-16T05:56:47;10.70;99.90
42907;DHT22;28552;51.146;6.576;2024-02-16T05:59:49;10.80;99.90
42907;DHT22;28552;51.146;6.576;2024-02-16T06:02:50;10.80;99.90
42907;DHT22;28552;51.146;6.576;2024-02-16T06:05:50;10.90;99.90
42907;DHT22;28552;51.146;6.576;2024-02-16T06:08:51;11.00;99.90
42907;DHT22;28552;51.146;6.576;2024-02-16T06:11:52;11.00;99.90
42907;DHT22;28552;51.146;6.576;2024-02-16T06:14:52;11.10;99.90
42907;DHT22;28552;51.146;6.576;2024-02-16T06:17:55;11.20;99.90
42907;DHT22;28552;51.146;6.576;2024-02-16T06:20:56;11.20;99.90
42907;DHT22;28552;51.146;6.576;2024-02-16T06:23:57;11.10;99.90
42907;DHT22;28552;51.146;6.576;2024-02-16T06:26:57;11.00;99.90
42907;DHT22;28552;51.146;6.576;2024-02-16T06:29:58;11.00;99.90
42907;DHT22;28552;51.146;6.576;2024-02-16T06:32:58;11.00;99.90
42907;DHT22;28552;51.146;6.576;2024-02-16T06:35:59;11.00;99.90
42907;DHT22;28552;51.146;6.576;2024-02-16T06:39:00;11.00;99.90
42907;DHT22;28552;51.146;6.576;2024-02-16T06:42:00;11.00;99.90
42907;DHT22;28552;51.146;6.576;2024-02-16T06:45:01;11.10;99.90
42907;DHT22;28552;51.146;6.576;2024-02-16T06:48:02;11.10;99.90
42907;DHT22;28552;51.146;6.576;2024-02-16T06:51:02;11.10;99.90
42907;DHT22;28552;51.146;6.576;2024-02-16T06:54:04;11.20;99.90
42907;DHT22;28552;51.146;6.576;2024-02-16T06:57:04;11.20;99.90
42907;DHT22;28552;51.146;6.576;2024-02-16T07:00:07;11.20;99.90
42907;DHT22;28552;51.146;6.576;2024-02-16T07:03:09;11.30;99.90
42907;DHT22;28552;51.146;6.576;2024-02-16T07:06:10;11.30;99.90
42907;DHT22;28552;51.146;6.576;2024-02-16T07:09:10;11.30;99.90
42907;DHT22;28552;51.146;6.576;2024-02-16T07:12:14;11.40;99.90
42907;DHT22;28552;51.146;6.576;2024-02-16T07:15:15;11.40;99.90
42907;DHT22;28552;51.146;6.576;2024-02-16T07:18:16;11.50;99.90
42907;DHT22;28552;51.146;6.576;2024-02-16T07:21:16;11.50;99.90
42907;DHT22;28552;51.146;6.576;2024-02-16T07:24:19;11.60;99.90
42907;DHT22;28552;51.146;6.576;2024-02-16T07:27:19;11.70;99.90
42907;DHT22;28552;51.146;6.576;2024-02-16T07:30:20;11.70;99.90
42907;DHT22;28552;51.146;6.576;2024-02-16T07:33:21;11.70;99.90
42907;DHT22;28552;51.146;6.576;2024-02-16T07:36:21;11.80;99.90
42907;DHT22;28552;51.146;6.576;2024-02-16T07:39:22;11.90;99.90
42907;DHT22;28552;51.146;6.576;2024-02-16T07:42:24;12.00;99.90
42907;DHT22;28552;51.146;6.576;2024-02-16T07:45:24;12.10;99.90
42907;DHT22;28552;51.146;6.576;2024-02-16T07:48:25;12.20;99.90
42907;DHT22;28552;51.146;6.576;2024-02-16T07:51:25;12.30;99.90
42907;DHT22;28552;51.146;6.576;2024-02-16T07:54:26;12.40;99.90
42907;DHT22;28552;51.146;6.576;2024-02-16T07:57:27;12.40;99.90
42907;DHT22;28552;51.146;6.576;2024-02-16T08:00:27;12.50;99.90
42907;DHT22;28552;51.146;6.576;2024-02-16T08:03:28;12.50;99.90
42907;DHT22;28552;51.146;6.576;2024-02-16T08:06:29;12.50;99.90
42907;DHT22;28552;51.146;6.576;2024-02-16T08:09:30;12.50;99.90
42907;DHT22;28552;51.146;6.576;2024-02-16T08:12:30;12.60;99.90
42907;DHT22;28552;51.146;6.576;2024-02-16T08:15:32;12.60;99.90
42907;DHT22;28552;51.146;6.576;2024-02-16T08:18:33;12.70;99.90
42907;DHT22;28552;51.146;6.576;2024-02-16T08:21:35;12.70;99.90
42907;DHT22;28552;51.146;6.576;2024-02-16T08:24:35;12.80;99.90
42907;DHT22;28552;51.146;6.576;2024-02-16T08:27:36;12.90;99.90
42907;DHT22;28552;51.146;6.576;2024-02-16T08:30:38;13.00;99.90
42907;DHT22;28552;51.146;6.576;2024-02-16T08:33:41;13.10;99.90
42907;DHT22;28552;51.146;6.576;2024-02-16T08:36:45;13.20;99.90
42907;DHT22;28552;51.146;6.576;2024-02-16T08:39:46;13.40;99.90
42907;DHT22;28552;51.146;6.576;2024-02-16T08:42:46;13.50;99.90
42907;DHT22;28552;51.146;6.576;2024-02-16T08:45:47;13.60;99.90
42907;DHT22;28552;51.146;6.576;2024-02-16T08:48:48;13.60;99.90
42907;DHT22;28552;51.146;6.576;2024-02-16T08:51:49;13.60;99.90
42907;DHT22;28552;51.146;6.576;2024-02-16T08:54:50;13.70;99.90
42907;DHT22;28552;51.146;6.576;2024-02-16T08:57:50;13.70;99.90
42907;DHT22;28552;51.146;6.576;2024-02-16T09:00:51;13.70;99.90
42907;DHT22;28552;51.146;6.576;2024-02-16T09:03:51;13.80;99.90
42907;DHT22;28552;51.146;6.576;2024-02-16T09:06:54;13.80;99.90
42907;DHT22;28552;51.146;6.576;2024-02-16T09:09:55;13.80;99.90
42907;DHT22;28552;51.146;6.576;2024-02-16T09:12:56;13.80;99.90
42907;DHT22;28552;51.146;6.576;2024-02-16T09:15:57;13.80;99.90
42907;DHT22;28552;51.146;6.576;2024-02-16T09:18:58;13.90;99.90
42907;DHT22;28552;51.146;6.576;2024-02-16T09:22:00;13.90;99.90
42907;DHT22;28552;51.146;6.576;2024-02-16T09:25:03;14.00;99.90
42907;DHT22;28552;51.146;6.576;2024-02-16T09:28:04;14.10;99.90
42907;DHT22;28552;51.146;6.576;2024-02-16T09:31:04;14.10;99.90
42907;DHT22;28552;51.146;6.576;2024-02-16T09:34:05;14.20;99.90
42907;DHT22;28552;51.146;6.576;2024-02-16T09:37:06;14.30;99.90
42907;DHT22;28552;51.146;6.576;2024-02-16T09:40:07;14.30;99.90
42907;DHT22;28552;51.146;6.576;2024-02-16T09:43:08;14.30;99.90
42907;DHT22;28552;51.146;6.576;2024-02-16T09:46:09;14.30;99.90
42907;DHT22;28552;51.146;6.576;2024-02-16T09:49:11;14.40;99.90
42907;DHT22;28552;51.146;6.576;2024-02-16T09:52:13;14.40;99.90
42907;DHT22;28552;51.146;6.576;2024-02-16T09:55:15;14.40;99.90
42907;DHT22;28552;51.146;6.576;2024-02-16T09:58:17;14.50;99.90
42907;DHT22;28552;51.146;6.576;2024-02-16T10:01:20;14.50;99.90
42907;DHT22;28552;51.146;6.576;2024-02-16T10:04:23;14.60;99.90
42907;DHT22;28552;51.146;6.576;2024-02-16T10:07:31;14.60;99.90
42907;DHT22;28552;51.146;6.576;2024-02-16T10:10:32;14.70;99.90
42907;DHT22;28552;51.146;6.576;2024-02-16T10:13:37;14.70;99.90
42907;DHT22;28552;51.146;6.576;2024-02-16T10:16:38;14.80;99.90
42907;DHT22;28552;51.146;6.576;2024-02-16T10:19:38;14.80;99.90
42907;DHT22;28552;51.146;6.576;2024-02-16T10:22:40;14.80;99.90
42907;DHT22;28552;51.146;6.576;2024-02-16T10:25:40;14.80;99.90
42907;DHT22;28552;51.146;6.576;2024-02-16T10:28:41;14.80;99.90
42907;DHT22;28552;51.146;6.576;2024-02-16T10:31:44;14.70;99.90
42907;DHT22;28552;51.146;6.576;2024-02-16T10:34:46;14.80;99.90
42907;DHT22;28552;51.146;6.576;2024-02-16T10:37:48;14.80;99.90
42907;DHT22;28552;51.146;6.576;2024-02-16T10:40:51;14.80;99.90
42907;DHT22;28552;51.146;6.576;2024-02-16T10:43:53;14.80;99.90
42907;DHT22;28552;51.146;6.576;2024-02-16T10:46:55;14.80;99.90
42907;DHT22;28552;51.146;6.576;2024-02-16T10:49:56;14.80;99.90
42907;DHT22;28552;51.146;6.576;2024-02-16T10:53:00;14.80;99.90
42907;DHT22;28552;51.146;6.576;2024-02-16T10:56:03;14.90;99.90
42907;DHT22;28552;51.146;6.576;2024-02-16T10:59:05;15.00;99.90
42907;DHT22;28552;51.146;6.576;2024-02-16T11:02:06;15.10;99.90
42907;DHT22;28552;51.146;6.576;2024-02-16T11:05:08;15.10;99.90
42907;DHT22;28552;51.146;6.576;2024-02-16T11:08:14;15.10;99.90
42907;DHT22;28552;51.146;6.576;2024-02-16T11:11:22;15.10;99.90
42907;DHT22;28552;51.146;6.576;2024-02-16T11:14:23;15.10;99.90
42907;DHT22;28552;51.146;6.576;2024-02-16T11:17:24;15.20;99.90
42907;DHT22;28552;51.146;6.576;2024-02-16T11:20:27;15.20;99.90
42907;DHT22;28552;51.146;6.576;2024-02-16T11:23:29;15.20;99.90
42907;DHT22;28552;51.146;6.576;2024-02-16T11:26:29;15.20;99.90
42907;DHT22;28552;51.146;6.576;2024-02-16T11:29:32;15.10;99.90
42907;DHT22;28552;51.146;6.576;2024-02-16T11:32:34;15.00;99.90
42907;DHT22;28552;51.146;6.576;2024-02-16T11:35:35;14.90;99.90
42907;DHT22;28552;51.146;6.576;2024-02-16T11:38:35;14.90;99.90
42907;DHT22;28552;51.146;6.576;2024-02-16T11:41:36;14.90;99.90
42907;DHT22;28552;51.146;6.576;2024-02-16T11:44:38;14.90;99.90
42907;DHT22;28552;51.146;6.576;2024-02-16T11:47:43;14.80;99.90
42907;DHT22;28552;51.146;6.576;2024-02-16T11:50:43;14.80;99.90
42907;DHT22;28552;51.146;6.576;2024-02-16T11:53:44;14.80;99.90
42907;DHT22;28552;51.146;6.576;2024-02-16T11:56:46;14.80;99.90
42907;DHT22;28552;51.146;6.576;2024-02-16T11:59:47;14.80;99.90
42907;DHT22;28552;51.146;6.576;2024-02-16T12:02:47;14.80;99.90
42907;DHT22;28552;51.146;6.576;2024-02-16T12:05:59;14.80;99.90
42907;DHT22;28552;51.146;6.576;2024-02-16T12:09:00;14.70;99.90
42907;DHT22;28552;51.146;6.576;2024-02-16T12:12:00;14.80;99.90
42907;DHT22;28552;51.146;6.576;2024-02-16T12:15:02;14.70;99.90
42907;DHT22;28552;51.146;6.576;2024-02-16T12:18:05;14.70;99.90
42907;DHT22;28552;51.146;6.576;2024-02-16T12:21:06;14.70;99.90
42907;DHT22;28552;51.146;6.576;2024-02-16T12:24:07;14.60;99.90
42907;DHT22;28552;51.146;6.576;2024-02-16T12:27:08;14.70;99.90
42907;DHT22;28552;51.146;6.576;2024-02-16T12:30:09;14.60;99.90
42907;DHT22;28552;51.146;6.576;2024-02-16T12:33:09;14.60;99.90
42907;DHT22;28552;51.146;6.576;2024-02-16T12:36:10;14.50;99.90
42907;DHT22;28552;51.146;6.576;2024-02-16T12:39:10;14.50;99.90
42907;DHT22;28552;51.146;6.576;2024-02-16T12:42:14;14.50;99.90
42907;DHT22;28552;51.146;6.576;2024-02-16T12:45:15;14.50;99.90
42907;DHT22;28552;51.146;6.576;2024-02-16T12:48:16;14.50;99.90
42907;DHT22;28552;51.146;6.576;2024-02-16T12:51:18;14.50;99.90
42907;DHT22;28552;51.146;6.576;2024-02-16T12:54:18;14.40;99.90
42907;DHT22;28552;51.146;6.576;2024-02-16T12:57:19;14.40;99.90
42907;DHT22;28552;51.146;6.576;2024-02-16T13:00:20;14.40;99.90
42907;DHT22;28552;51.146;6.576;2024-02-16T13:03:20;14.30;99.90
42907;DHT22;28552;51.146;6.576;2024-02-16T13:06:21;14.30;99.90
42907;DHT22;28552;51.146;6.576;2024-02-16T13:09:21;14.30;99.90
42907;DHT22;28552;51.146;6.576;2024-02-16T13:12:22;14.30;99.90
42907;DHT22;28552;51.146;6.576;2024-02-16T13:15:24;14.20;99.90
42907;DHT22;28552;51.146;6.576;2024-02-16T13:18:24;14.20;99.90
42907;DHT22;28552;51.146;6.576;2024-02-16T13:21:25;14.20;99.90
42907;DHT22;28552;51.146;6.576;2024-02-16T13:24:26;14.10;99.90
42907;DHT22;28552;51.146;6.576;2024-02-16T13:27:26;14.10;99.90
42907;DHT22;28552;51.146;6.576;2024-02-16T13:30:27;14.10;99.90
42907;DHT22;28552;51.146;6.576;2024-02-16T13:33:28;14.10;99.90
42907;DHT22;28552;51.146;6.576;2024-02-16T13:36:28;14.00;99.90
42907;DHT22;28552;51.146;6.576;2024-02-16T13:39:29;14.00;99.90
42907;DHT22;28552;51.146;6.576;2024-02-16T13:42:29;13.90;99.90
42907;DHT22;28552;51.146;6.576;2024-02-16T13:45:48;13.80;99.90
42907;DHT22;28552;51.146;6.576;2024-02-16T13:48:49;13.80;99.90
42907;DHT22;28552;51.146;6.576;2024-02-16T13:51:50;13.70;99.90
42907;DHT22;28552;51.146;6.576;2024-02-16T13:54:50;13.60;99.90
42907;DHT22;28552;51.146;6.576;2024-02-16T13:57:51;13.50;99.90
42907;DHT22;28552;51.146;6.576;2024-02-16T14:00:52;13.40;99.90
42907;DHT22;28552;51.146;6.576;2024-02-16T14:03:52;13.30;99.90
42907;DHT22;28552;51.146;6.576;2024-02-16T14:06:53;13.20;99.90
42907;DHT22;28552;51.146;6.576;2024-02-16T14:09:54;13.20;99.90
42907;DHT22;28552;51.146;6.576;2024-02-16T14:12:55;13.10;99.90
42907;DHT22;28552;51.146;6.576;2024-02-16T14:15:55;13.10;99.90
42907;DHT22;28552;51.146;6.576;2024-02-16T14:18:56;13.10;99.90
42907;DHT22;28552;51.146;6.576;2024-02-16T14:21:57;13.10;99.90
42907;DHT22;28552;51.146;6.576;2024-02-16T14:24:58;13.10;99.90
42907;DHT22;28552;51.146;6.576;2024-02-16T14:27:58;13.20;99.90
42907;DHT22;28552;51.146;6.576;2024-02-16T14:30:59;13.10;99.90
42907;DHT22;28552;51.146;6.576;2024-02-16T14:34:00;13.10;99.90
42907;DHT22;28552;51.146;6.576;2024-02-16T14:37:00;13.10;99.90
42907;DHT22;28552;51.146;6.576;2024-02-16T14:40:01;13.10;99.90
42907;DHT22;28552;51.146;6.576;2024-02-16T14:43:04;13.10;99.90
42907;DHT22;28552;51.146;6.576;2024-02-16T14:46:04;13.20;99.90
42907;DHT22;28552;51.146;6.576;2024-02-16T14:49:05;13.10;99.90
42907;DHT22;28552;51.146;6.576;2024-02-16T14:52:08;13.00;99.90
42907;DHT22;28552;51.146;6.576;2024-02-16T14:55:10;13.00;99.90
42907;DHT22;28552;51.146;6.576;2024-02-16T14:58:10;13.10;99.90
42907;DHT22;28552;51.146;6.576;2024-02-16T15:01:11;13.10;99.90
42907;DHT22;28552;51.146;6.576;2024-02-16T15:04:12;13.00;99.90
42907;DHT22;28552;51.146;6.576;2024-02-16T15:07:13;13.00;99.90
42907;DHT22;28552;51.146;6.576;2024-02-16T15:10:13;12.90;99.90
42907;DHT22;28552;51.146;6.576;2024-02-16T15:13:14;12.80;99.90
42907;DHT22;28552;51.146;6.576;2024-02-16T15:16:15;12.80;99.90
42907;DHT22;28552;51.146;6.576;2024-02-16T15:19:15;12.70;99.90
42907;DHT22;28552;51.146;6.576;2024-02-16T15:22:16;12.60;99.90
42907;DHT22;28552;51.146;6.576;2024-02-16T15:25:17;12.50;99.90
42907;DHT22;28552;51.146;6.576;2024-02-16T15:28:17;12.40;99.90
42907;DHT22;28552;51.146;6.576;2024-02-16T15:31:18;12.40;99.90
42907;DHT22;28552;51.146;6.576;2024-02-16T15:34:18;12.30;99.90
42907;DHT22;28552;51.146;6.576;2024-02-16T15:37:19;12.30;99.90
42907;DHT22;28552;51.146;6.576;2024-02-16T15:40:21;12.30;99.90
42907;DHT22;28552;51.146;6.576;2024-02-16T15:43:22;12.20;99.90
42907;DHT22;28552;51.146;6.576;2024-02-16T15:46:22;12.20;99.90
42907;DHT22;28552;51.146;6.576;2024-02-16T15:49:23;12.20;99.90
42907;DHT22;28552;51.146;6.576;2024-02-16T15:52:23;12.20;99.90
42907;DHT22;28552;51.146;6.576;2024-02-16T15:55:24;12.20;99.90
42907;DHT22;28552;51.146;6.576;2024-02-16T15:58:25;12.10;99.90
42907;DHT22;28552;51.146;6.576;2024-02-16T16:01:26;12.10;99.90
42907;DHT22;28552;51.146;6.576;2024-02-16T16:04:28;12.10;99.90
42907;DHT22;28552;51.146;6.576;2024-02-16T16:07:29;12.10;99.90
42907;DHT22;28552;51.146;6.576;2024-02-16T16:10:29;12.10;99.90
42907;DHT22;28552;51.146;6.576;2024-02-16T16:13:30;12.10;99.90
42907;DHT22;28552;51.146;6.576;2024-02-16T16:16:31;12.10;99.90
42907;DHT22;28552;51.146;6.576;2024-02-16T16:19:32;12.00;99.90
42907;DHT22;28552;51.146;6.576;2024-02-16T16:22:33;12.00;99.90
42907;DHT22;28552;51.146;6.576;2024-02-16T16:25:34;12.00;99.90
42907;DHT22;28552;51.146;6.576;2024-02-16T16:28:35;12.00;99.90
42907;DHT22;28552;51.146;6.576;2024-02-16T16:31:35;12.00;99.90
42907;DHT22;28552;51.146;6.576;2024-02-16T16:34:36;12.00;99.90
42907;DHT22;28552;51.146;6.576;2024-02-16T16:37:38;11.90;99.90
42907;DHT22;28552;51.146;6.576;2024-02-16T16:40:38;11.90;99.90
42907;DHT22;28552;51.146;6.576;2024-02-16T16:43:39;11.90;99.90
42907;DHT22;28552;51.146;6.576;2024-02-16T16:46:40;11.90;99.90
42907;DHT22;28552;51.146;6.576;2024-02-16T16:49:41;11.90;99.90
42907;DHT22;28552;51.146;6.576;2024-02-16T16:52:41;11.90;99.90
42907;DHT22;28552;51.146;6.576;2024-02-16T16:55:42;11.90;99.90
42907;DHT22;28552;51.146;6.576;2024-02-16T16:58:43;11.90;99.90
42907;DHT22;28552;51.146;6.576;2024-02-16T17:01:45;11.90;99.90
42907;DHT22;28552;51.146;6.576;2024-02-16T17:04:46;11.90;99.90
42907;DHT22;28552;51.146;6.576;2024-02-16T17:07:48;11.90;99.90
42907;DHT22;28552;51.146;6.576;2024-02-16T17:10:49;11.90;99.90
42907;DHT22;28552;51.146;6.576;2024-02-16T17:13:49;11.80;99.90
42907;DHT22;28552;51.146;6.576;2024-02-16T17:16:50;11.80;99.90
42907;DHT22;28552;51.146;6.576;2024-02-16T17:19:50;11.80;99.90
42907;DHT22;28552;51.146;6.576;2024-02-16T17:22:51;11.80;99.90
42907;DHT22;28552;51.146;6.576;2024-02-16T17:25:53;11.80;99.90
42907;DHT22;28552;51.146;6.576;2024-02-16T17:28:54;11.80;99.90
42907;DHT22;28552;51.146;6.576;2024-02-16T17:31:55;11.70;99.90
42907;DHT22;28552;51.146;6.576;2024-02-16T17:34:56;11.70;99.90
42907;DHT22;28552;51.146;6.576;2024-02-16T17:37:57;11.70;99.90
42907;DHT22;28552;51.146;6.576;2024-02-16T17:40:58;11.70;99.90
42907;DHT22;28552;51.146;6.576;2024-02-16T17:43:59;11.70;99.90
42907;DHT22;28552;51.146;6.576;2024-02-16T17:47:00;11.70;99.90
42907;DHT22;28552;51.146;6.576;2024-02-16T17:50:01;11.70;99.90
42907;DHT22;28552;51.146;6.576;2024-02-16T17:53:01;11.70;99.90
42907;DHT22;28552;51.146;6.576;2024-02-16T17:56:02;11.70;99.90
42907;DHT22;28552;51.146;6.576;2024-02-16T17:59:04;11.70;99.90
42907;DHT22;28552;51.146;6.576;2024-02-16T18:02:04;11.60;99.90
42907;DHT22;28552;51.146;6.576;2024-02-16T18:05:06;11.70;99.90
42907;DHT22;28552;51.146;6.576;2024-02-16T18:08:07;11.70;99.90
42907;DHT22;28552;51.146;6.576;2024-02-16T18:11:07;11.60;99.90
42907;DHT22;28552;51.146;6.576;2024-02-16T18:14:08;11.60;99.90
42907;DHT22;28552;51.146;6.576;2024-02-16T18:17:10;11.60;99.90
42907;DHT22;28552;51.146;6.576;2024-02-16T18:20:13;11.50;99.90
42907;DHT22;28552;51.146;6.576;2024-02-16T18:23:14;11.50;99.90
42907;DHT22;28552;51.146;6.576;2024-02-16T18:26:14;11.50;99.90
42907;DHT22;28552;51.146;6.576;2024-02-16T18:29:15;11.50;99.90
42907;DHT22;28552;51.146;6.576;2024-02-16T18:32:15;11.50;99.90
42907;DHT22;28552;51.146;6.576;2024-02-16T18:35:16;11.50;99.90
42907;DHT22;28552;51.146;6.576;2024-02-16T18:38:17;11.50;99.90
42907;DHT22;28552;51.146;6.576;2024-02-16T18:41:17;11.50;99.90
42907;DHT22;28552;51.146;6.576;2024-02-16T18:44:18;11.50;99.90
42907;DHT22;28552;51.146;6.576;2024-02-16T18:47:19;11.50;99.90
42907;DHT22;28552;51.146;6.576;2024-02-16T18:50:20;11.50;99.90
42907;DHT22;28552;51.146;6.576;2024-02-16T18:53:20;11.40;99.90
42907;DHT22;28552;51.146;6.576;2024-02-16T18:56:21;11.40;99.90
42907;DHT22;28552;51.146;6.576;2024-02-16T18:59:21;11.40;99.90
42907;DHT22;28552;51.146;6.576;2024-02-16T19:02:22;11.40;99.90